sensor_id;sensor_type;location;lat;lon;timestamp;temperature;humidity
8539;DHT22;4307;53.868;11.680;2022-07-06T00:02:09;14.50;99.20
8539;DHT22;4307;53.868;11.680;2022-07-06T00:04:35;14.50;99.50
8539;DHT22;4307;53.868;11.680;2022-07-06T00:07:02;14.50;99.70
8539;DHT22;4307;53.868;11.680;2022-07-06T00:09:29;14.50;99.90
8539;DHT22;4307;53.868;11.680;2022-07-06T00:11:57;14.50;99.90
8539;DHT22;4307;53.868;11.680;2022-07-06T00:14:24;14.50;99.90
8539;DHT22;4307;53.868;11.680;2022-07-06T00:16:50;14.50;99.90
8539;DHT22;4307;53.868;11.680;2022-07-06T00:19:17;14.60;99.90
8539;DHT22;4307;53.868;11.680;2022-07-06T00:21:44;14.60;99.90
8539;DHT22;4307;53.868;11.680;2022-07-06T00:24:10;14.60;99.90
8539;DHT22;4307;53.868;11.680;2022-07-06T00:26:37;14.60;99.90
8539;DHT22;4307;53.868;11.680;2022-07-06T00:29:05;14.60;99.90
8539;DHT22;4307;53.868;11.680;2022-07-06T00:31:32;14.60;99.90
8539;DHT22;4307;53.868;11.680;2022-07-06T00:33:58;14.60;99.90
8539;DHT22;4307;53.868;11.680;2022-07-06T00:36:25;14.70;99.90
8539;DHT22;4307;53.868;11.680;2022-07-06T00:38:52;14.70;99.90
8539;DHT22;4307;53.868;11.680;2022-07-06T00:41:19;14.70;99.90
8539;DHT22;4307;53.868;11.680;2022-07-06T00:43:47;14.60;99.90
8539;DHT22;4307;53.868;11.680;2022-07-06T00:46:15;14.60;99.90
8539;DHT22;4307;53.868;11.680;2022-07-06T00:48:42;14.70;99.90
8539;DHT22;4307;53.868;11.680;2022-07-06T00:51:10;14.60;99.90
8539;DHT22;4307;53.868;11.680;2022-07-06T00:53:37;14.60;99.90
8539;DHT22;4307;53.868;11.680;2022-07-06T00:56:04;14.60;99.90
8539;DHT22;4307;53.868;11.680;2022-07-06T00:58:31;14.60;99.90
8539;DHT22;4307;53.868;11.680;2022-07-06T01:00:57;14.60;99.90
8539;DHT22;4307;53.868;11.680;2022-07-06T01:03:25;14.60;99.90
8539;DHT22;4307;53.868;11.680;2022-07-06T01:05:52;14.60;99.90
8539;DHT22;4307;53.868;11.680;2022-07-06T01:08:19;14.60;99.90
8539;DHT22;4307;53.868;11.680;2022-07-06T01:10:46;14.60;99.90
8539;DHT22;4307;53.868;11.680;2022-07-06T01:13:12;14.60;99.90
8539;DHT22;4307;53.868;11.680;2022-07-06T01:15:39;14.60;99.90
8539;DHT22;4307;53.868;11.680;2022-07-06T01:18:06;14.60;99.90
8539;DHT22;4307;53.868;11.680;2022-07-06T01:20:37;14.60;99.90
8539;DHT22;4307;53.868;11.680;2022-07-06T01:23:03;14.60;99.90
8539;DHT22;4307;53.868;11.680;2022-07-06T01:25:30;14.60;99.90
8539;DHT22;4307;53.868;11.680;2022-07-06T01:27:57;14.70;99.90
8539;DHT22;4307;53.868;11.680;2022-07-06T01:30:24;14.70;99.90
8539;DHT22;4307;53.868;11.680;2022-07-06T01:32:51;14.70;99.90
8539;DHT22;4307;53.868;11.680;2022-07-06T01:35:18;14.70;99.90
8539;DHT22;4307;53.868;11.680;2022-07-06T01:37:46;14.70;99.90
8539;DHT22;4307;53.868;11.680;2022-07-06T01:40:13;14.70;99.90
8539;DHT22;4307;53.868;11.680;2022-07-06T01:42:40;14.70;99.90
8539;DHT22;4307;53.868;11.680;2022-07-06T01:45:08;14.70;99.90
8539;DHT22;4307;53.868;11.680;2022-07-06T01:47:34;14.70;99.90
8539;DHT22;4307;53.868;11.680;2022-07-06T01:50:04;14.60;99.90
8539;DHT22;4307;53.868;11.680;2022-07-06T01:52:31;14.60;99.90
8539;DHT22;4307;53.868;11.680;2022-07-06T01:54:59;14.60;99.90
8539;DHT22;4307;53.868;11.680;2022-07-06T01:57:26;14.60;99.90
8539;DHT22;4307;53.868;11.680;2022-07-06T01:59:52;14.60;99.90
8539;DHT22;4307;53.868;11.680;2022-07-06T02:02:19;14.60;99.90
8539;DHT22;4307;53.868;11.680;2022-07-06T02:04:45;14.60;99.90
8539;DHT22;4307;53.868;11.680;2022-07-06T02:07:12;14.60;99.90
8539;DHT22;4307;53.868;11.680;2022-07-06T02:09:39;14.50;99.90
8539;DHT22;4307;53.868;11.680;2022-07-06T02:12:07;14.50;99.90
8539;DHT22;4307;53.868;11.680;2022-07-06T02:14:34;14.50;99.90
8539;DHT22;4307;53.868;11.680;2022-07-06T02:17:00;14.50;99.90
8539;DHT22;4307;53.868;11.680;2022-07-06T02:19:27;14.50;99.90
8539;DHT22;4307;53.868;11.680;2022-07-06T02:21:54;14.50;99.90
8539;DHT22;4307;53.868;11.680;2022-07-06T02:24:20;14.60;99.90
8539;DHT22;4307;53.868;11.680;2022-07-06T02:26:47;14.60;99.90
8539;DHT22;4307;53.868;11.680;2022-07-06T02:29:15;14.60;99.90
8539;DHT22;4307;53.868;11.680;2022-07-06T02:31:42;14.60;99.90
8539;DHT22;4307;53.868;11.680;2022-07-06T02:34:08;14.60;99.90
8539;DHT22;4307;53.868;11.680;2022-07-06T02:36:35;14.60;99.90
8539;DHT22;4307;53.868;11.680;2022-07-06T02:39:02;14.60;99.90
8539;DHT22;4307;53.868;11.680;2022-07-06T02:41:29;14.60;99.90
8539;DHT22;4307;53.868;11.680;2022-07-06T02:43:55;14.60;99.90
8539;DHT22;4307;53.868;11.680;2022-07-06T02:46:23;14.60;99.90
8539;DHT22;4307;53.868;11.680;2022-07-06T02:48:50;14.60;99.90
8539;DHT22;4307;53.868;11.680;2022-07-06T02:51:17;14.60;99.90
8539;DHT22;4307;53.868;11.680;2022-07-06T02:53:43;14.60;99.90
8539;DHT22;4307;53.868;11.680;2022-07-06T02:56:10;14.60;99.90
8539;DHT22;4307;53.868;11.680;2022-07-06T02:58:36;14.60;99.90
8539;DHT22;4307;53.868;11.680;2022-07-06T03:01:03;14.60;99.90
8539;DHT22;4307;53.868;11.680;2022-07-06T03:03:32;14.50;99.90
8539;DHT22;4307;53.868;11.680;2022-07-06T03:06:00;14.50;99.90
8539;DHT22;4307;53.868;11.680;2022-07-06T03:08:26;14.50;99.90
8539;DHT22;4307;53.868;11.680;2022-07-06T03:10:53;14.50;99.90
8539;DHT22;4307;53.868;11.680;2022-07-06T03:13:20;14.50;99.90
8539;DHT22;4307;53.868;11.680;2022-07-06T03:15:46;14.60;99.90
8539;DHT22;4307;53.868;11.680;2022-07-06T03:18:13;14.60;99.90
8539;DHT22;4307;53.868;11.680;2022-07-06T03:20:41;14.60;99.90
8539;DHT22;4307;53.868;11.680;2022-07-06T03:23:08;14.60;99.90
8539;DHT22;4307;53.868;11.680;2022-07-06T03:25:34;14.60;99.90
8539;DHT22;4307;53.868;11.680;2022-07-06T03:28:01;14.60;99.90
8539;DHT22;4307;53.868;11.680;2022-07-06T03:30:28;14.60;99.90
8539;DHT22;4307;53.868;11.680;2022-07-06T03:32:54;14.70;99.90
8539;DHT22;4307;53.868;11.680;2022-07-06T03:35:21;14.70;99.90
8539;DHT22;4307;53.868;11.680;2022-07-06T03:37:49;14.70;99.90
8539;DHT22;4307;53.868;11.680;2022-07-06T03:40:16;14.70;99.90
8539;DHT22;4307;53.868;11.680;2022-07-06T03:42:42;14.80;99.90
8539;DHT22;4307;53.868;11.680;2022-07-06T03:45:10;14.90;99.90
8539;DHT22;4307;53.868;11.680;2022-07-06T03:47:37;15.00;99.90
8539;DHT22;4307;53.868;11.680;2022-07-06T03:50:04;15.20;99.90
8539;DHT22;4307;53.868;11.680;2022-07-06T03:52:31;15.30;99.90
8539;DHT22;4307;53.868;11.680;2022-07-06T03:54:59;15.30;99.90
8539;DHT22;4307;53.868;11.680;2022-07-06T03:57:26;15.30;99.90
8539;DHT22;4307;53.868;11.680;2022-07-06T03:59:52;15.20;99.90
8539;DHT22;4307;53.868;11.680;2022-07-06T04:02:19;15.20;99.90
8539;DHT22;4307;53.868;11.680;2022-07-06T04:04:45;15.10;99.90
8539;DHT22;4307;53.868;11.680;2022-07-06T04:07:12;15.10;99.90
8539;DHT22;4307;53.868;11.680;2022-07-06T04:09:39;15.10;99.90
8539;DHT22;4307;53.868;11.680;2022-07-06T04:12:07;15.10;99.90
8539;DHT22;4307;53.868;11.680;2022-07-06T04:14:34;15.10;99.90
8539;DHT22;4307;53.868;11.680;2022-07-06T04:17:01;15.10;99.90
8539;DHT22;4307;53.868;11.680;2022-07-06T04:19:48;15.10;99.90
8539;DHT22;4307;53.868;11.680;2022-07-06T04:22:15;15.10;99.90
8539;DHT22;4307;53.868;11.680;2022-07-06T04:24:42;15.10;99.90
8539;DHT22;4307;53.868;11.680;2022-07-06T04:27:10;15.20;99.90
8539;DHT22;4307;53.868;11.680;2022-07-06T04:29:36;15.20;99.90
8539;DHT22;4307;53.868;11.680;2022-07-06T04:32:04;15.10;99.90
8539;DHT22;4307;53.868;11.680;2022-07-06T04:34:31;15.20;99.90
8539;DHT22;4307;53.868;11.680;2022-07-06T04:36:57;15.20;99.90
8539;DHT22;4307;53.868;11.680;2022-07-06T04:39:24;15.30;99.90
8539;DHT22;4307;53.868;11.680;2022-07-06T04:41:51;15.30;99.90
8539;DHT22;4307;53.868;11.680;2022-07-06T04:44:19;15.40;99.90
8539;DHT22;4307;53.868;11.680;2022-07-06T04:46:45;15.40;99.90
8539;DHT22;4307;53.868;11.680;2022-07-06T04:49:12;15.40;99.90
8539;DHT22;4307;53.868;11.680;2022-07-06T04:51:39;15.50;99.90
8539;DHT22;4307;53.868;11.680;2022-07-06T04:54:06;15.50;99.90
8539;DHT22;4307;53.868;11.680;2022-07-06T04:56:32;15.50;99.90
8539;DHT22;4307;53.868;11.680;2022-07-06T04:58:59;15.60;99.90
8539;DHT22;4307;53.868;11.680;2022-07-06T05:01:27;15.60;99.90
8539;DHT22;4307;53.868;11.680;2022-07-06T05:03:54;15.70;99.90
8539;DHT22;4307;53.868;11.680;2022-07-06T05:06:21;15.70;99.90
8539;DHT22;4307;53.868;11.680;2022-07-06T05:08:48;15.70;99.90
8539;DHT22;4307;53.868;11.680;2022-07-06T05:11:15;15.70;99.90
8539;DHT22;4307;53.868;11.680;2022-07-06T05:13:42;15.70;99.90
8539;DHT22;4307;53.868;11.680;2022-07-06T05:16:09;15.80;99.90
8539;DHT22;4307;53.868;11.680;2022-07-06T05:18:37;15.80;99.90
8539;DHT22;4307;53.868;11.680;2022-07-06T05:21:04;15.90;99.90
8539;DHT22;4307;53.868;11.680;2022-07-06T05:23:30;15.90;99.90
8539;DHT22;4307;53.868;11.680;2022-07-06T05:25:57;16.00;99.90
8539;DHT22;4307;53.868;11.680;2022-07-06T05:28:24;16.20;99.90
8539;DHT22;4307;53.868;11.680;2022-07-06T05:30:50;16.40;99.90
8539;DHT22;4307;53.868;11.680;2022-07-06T05:33:17;16.60;99.90
8539;DHT22;4307;53.868;11.680;2022-07-06T05:35:45;16.60;99.90
8539;DHT22;4307;53.868;11.680;2022-07-06T05:38:12;16.60;99.90
8539;DHT22;4307;53.868;11.680;2022-07-06T05:40:39;16.70;99.90
8539;DHT22;4307;53.868;11.680;2022-07-06T05:43:05;16.70;99.90
8539;DHT22;4307;53.868;11.680;2022-07-06T05:45:32;16.80;99.90
8539;DHT22;4307;53.868;11.680;2022-07-06T05:47:59;16.90;99.90
8539;DHT22;4307;53.868;11.680;2022-07-06T05:50:45;17.00;99.90
8539;DHT22;4307;53.868;11.680;2022-07-06T05:53:12;17.30;99.90
8539;DHT22;4307;53.868;11.680;2022-07-06T05:55:38;17.60;99.90
8539;DHT22;4307;53.868;11.680;2022-07-06T05:58:05;17.80;99.90
8539;DHT22;4307;53.868;11.680;2022-07-06T06:00:32;17.80;99.90
8539;DHT22;4307;53.868;11.680;2022-07-06T06:02:59;17.70;99.90
8539;DHT22;4307;53.868;11.680;2022-07-06T06:05:26;17.80;99.90
8539;DHT22;4307;53.868;11.680;2022-07-06T06:07:54;18.00;99.90
8539;DHT22;4307;53.868;11.680;2022-07-06T06:10:21;18.10;99.90
8539;DHT22;4307;53.868;11.680;2022-07-06T06:12:48;18.20;99.90
8539;DHT22;4307;53.868;11.680;2022-07-06T06:15:15;18.10;99.70
8539;DHT22;4307;53.868;11.680;2022-07-06T06:17:42;18.10;99.50
8539;DHT22;4307;53.868;11.680;2022-07-06T06:20:10;18.30;99.60
8539;DHT22;4307;53.868;11.680;2022-07-06T06:22:45;18.60;98.50
8539;DHT22;4307;53.868;11.680;2022-07-06T06:25:14;18.80;97.90
8539;DHT22;4307;53.868;11.680;2022-07-06T06:27:40;18.80;96.90
8539;DHT22;4307;53.868;11.680;2022-07-06T06:30:08;18.70;96.70
8539;DHT22;4307;53.868;11.680;2022-07-06T06:32:35;18.70;97.30
8539;DHT22;4307;53.868;11.680;2022-07-06T06:35:01;19.00;97.10
8539;DHT22;4307;53.868;11.680;2022-07-06T06:37:28;19.30;96.80
8539;DHT22;4307;53.868;11.680;2022-07-06T06:39:55;19.80;96.50
8539;DHT22;4307;53.868;11.680;2022-07-06T06:42:23;20.10;95.50
8539;DHT22;4307;53.868;11.680;2022-07-06T06:44:49;20.20;95.00
8539;DHT22;4307;53.868;11.680;2022-07-06T06:47:16;20.10;94.40
8539;DHT22;4307;53.868;11.680;2022-07-06T06:49:44;20.20;94.60
8539;DHT22;4307;53.868;11.680;2022-07-06T06:52:11;20.40;94.30
8539;DHT22;4307;53.868;11.680;2022-07-06T06:54:37;20.30;93.30
8539;DHT22;4307;53.868;11.680;2022-07-06T06:57:04;20.20;93.60
8539;DHT22;4307;53.868;11.680;2022-07-06T06:59:32;20.20;93.30
8539;DHT22;4307;53.868;11.680;2022-07-06T07:01:59;20.30;93.40
8539;DHT22;4307;53.868;11.680;2022-07-06T07:04:26;20.30;93.00
8539;DHT22;4307;53.868;11.680;2022-07-06T07:06:54;20.30;93.00
8539;DHT22;4307;53.868;11.680;2022-07-06T07:09:21;20.40;92.80
8539;DHT22;4307;53.868;11.680;2022-07-06T07:11:48;20.50;92.80
8539;DHT22;4307;53.868;11.680;2022-07-06T07:14:14;20.80;92.60
8539;DHT22;4307;53.868;11.680;2022-07-06T07:16:42;20.90;92.20
8539;DHT22;4307;53.868;11.680;2022-07-06T07:19:09;21.20;91.90
8539;DHT22;4307;53.868;11.680;2022-07-06T07:21:35;21.30;91.50
8539;DHT22;4307;53.868;11.680;2022-07-06T07:24:02;21.30;91.30
8539;DHT22;4307;53.868;11.680;2022-07-06T07:26:29;21.40;91.10
8539;DHT22;4307;53.868;11.680;2022-07-06T07:28:56;21.30;90.50
8539;DHT22;4307;53.868;11.680;2022-07-06T07:31:22;21.10;90.20
8539;DHT22;4307;53.868;11.680;2022-07-06T07:33:50;21.10;90.00
8539;DHT22;4307;53.868;11.680;2022-07-06T07:36:17;21.10;90.10
8539;DHT22;4307;53.868;11.680;2022-07-06T07:38:44;21.20;89.60
8539;DHT22;4307;53.868;11.680;2022-07-06T07:41:10;21.20;88.80
8539;DHT22;4307;53.868;11.680;2022-07-06T07:43:39;21.20;89.20
8539;DHT22;4307;53.868;11.680;2022-07-06T07:46:06;21.10;88.70
8539;DHT22;4307;53.868;11.680;2022-07-06T07:48:32;21.10;88.30
8539;DHT22;4307;53.868;11.680;2022-07-06T07:51:00;21.00;88.50
8539;DHT22;4307;53.868;11.680;2022-07-06T07:53:27;21.00;88.80
8539;DHT22;4307;53.868;11.680;2022-07-06T07:55:54;21.20;88.60
8539;DHT22;4307;53.868;11.680;2022-07-06T07:58:20;21.40;87.50
8539;DHT22;4307;53.868;11.680;2022-07-06T08:00:47;21.40;87.30
8539;DHT22;4307;53.868;11.680;2022-07-06T08:03:14;21.20;87.40
8539;DHT22;4307;53.868;11.680;2022-07-06T08:05:40;21.00;88.00
8539;DHT22;4307;53.868;11.680;2022-07-06T08:08:08;21.20;89.10
8539;DHT22;4307;53.868;11.680;2022-07-06T08:10:35;21.60;88.70
8539;DHT22;4307;53.868;11.680;2022-07-06T08:13:02;21.90;87.70
8539;DHT22;4307;53.868;11.680;2022-07-06T08:15:28;22.30;87.00
8539;DHT22;4307;53.868;11.680;2022-07-06T08:17:56;22.80;86.10
8539;DHT22;4307;53.868;11.680;2022-07-06T08:20:23;23.10;85.10
8539;DHT22;4307;53.868;11.680;2022-07-06T08:22:50;23.40;84.30
8539;DHT22;4307;53.868;11.680;2022-07-06T08:25:18;23.50;83.10
8539;DHT22;4307;53.868;11.680;2022-07-06T08:27:45;23.50;81.30
8539;DHT22;4307;53.868;11.680;2022-07-06T08:30:12;23.50;80.60
8539;DHT22;4307;53.868;11.680;2022-07-06T08:32:38;23.20;80.10
8539;DHT22;4307;53.868;11.680;2022-07-06T08:35:06;23.20;80.70
8539;DHT22;4307;53.868;11.680;2022-07-06T08:37:33;23.40;79.70
8539;DHT22;4307;53.868;11.680;2022-07-06T08:39:59;23.50;78.80
8539;DHT22;4307;53.868;11.680;2022-07-06T08:42:31;23.70;77.40
8539;DHT22;4307;53.868;11.680;2022-07-06T08:44:59;23.90;76.10
8539;DHT22;4307;53.868;11.680;2022-07-06T08:47:26;24.00;75.50
8539;DHT22;4307;53.868;11.680;2022-07-06T08:49:53;24.00;74.40
8539;DHT22;4307;53.868;11.680;2022-07-06T08:52:21;23.90;73.50
8539;DHT22;4307;53.868;11.680;2022-07-06T08:54:48;23.80;73.50
8539;DHT22;4307;53.868;11.680;2022-07-06T08:57:15;23.80;73.30
8539;DHT22;4307;53.868;11.680;2022-07-06T08:59:43;23.60;71.20
8539;DHT22;4307;53.868;11.680;2022-07-06T09:02:10;23.20;70.70
8539;DHT22;4307;53.868;11.680;2022-07-06T09:04:37;23.10;71.80
8539;DHT22;4307;53.868;11.680;2022-07-06T09:07:04;23.10;71.60
8539;DHT22;4307;53.868;11.680;2022-07-06T09:09:31;23.00;71.90
8539;DHT22;4307;53.868;11.680;2022-07-06T09:11:58;22.80;72.00
8539;DHT22;4307;53.868;11.680;2022-07-06T09:14:25;22.70;72.70
8539;DHT22;4307;53.868;11.680;2022-07-06T09:17:04;22.90;72.70
8539;DHT22;4307;53.868;11.680;2022-07-06T09:19:31;23.10;72.00
8539;DHT22;4307;53.868;11.680;2022-07-06T09:21:57;23.30;71.90
8539;DHT22;4307;53.868;11.680;2022-07-06T09:24:24;23.60;71.50
8539;DHT22;4307;53.868;11.680;2022-07-06T09:26:55;24.00;71.00
8539;DHT22;4307;53.868;11.680;2022-07-06T09:29:27;24.30;70.30
8539;DHT22;4307;53.868;11.680;2022-07-06T09:32:00;24.60;69.40
8539;DHT22;4307;53.868;11.680;2022-07-06T09:34:40;24.80;68.50
8539;DHT22;4307;53.868;11.680;2022-07-06T09:37:08;25.00;68.30
8539;DHT22;4307;53.868;11.680;2022-07-06T09:39:35;25.20;68.00
8539;DHT22;4307;53.868;11.680;2022-07-06T09:42:03;25.40;66.70
8539;DHT22;4307;53.868;11.680;2022-07-06T09:44:31;25.20;66.00
8539;DHT22;4307;53.868;11.680;2022-07-06T09:47:01;25.20;66.30
8539;DHT22;4307;53.868;11.680;2022-07-06T09:49:28;25.20;66.30
8539;DHT22;4307;53.868;11.680;2022-07-06T09:51:57;25.10;66.10
8539;DHT22;4307;53.868;11.680;2022-07-06T09:54:24;25.10;65.80
8539;DHT22;4307;53.868;11.680;2022-07-06T09:56:52;25.10;66.00
8539;DHT22;4307;53.868;11.680;2022-07-06T09:59:21;25.20;65.70
8539;DHT22;4307;53.868;11.680;2022-07-06T10:01:51;25.40;64.80
8539;DHT22;4307;53.868;11.680;2022-07-06T10:04:21;25.20;62.80
8539;DHT22;4307;53.868;11.680;2022-07-06T10:06:49;25.10;63.10
8539;DHT22;4307;53.868;11.680;2022-07-06T10:09:18;25.20;63.00
8539;DHT22;4307;53.868;11.680;2022-07-06T10:11:48;25.20;63.00
8539;DHT22;4307;53.868;11.680;2022-07-06T10:14:18;25.20;62.50
8539;DHT22;4307;53.868;11.680;2022-07-06T10:16:46;25.20;62.30
8539;DHT22;4307;53.868;11.680;2022-07-06T10:19:14;25.30;62.20
8539;DHT22;4307;53.868;11.680;2022-07-06T10:21:43;25.40;61.80
8539;DHT22;4307;53.868;11.680;2022-07-06T10:24:11;25.40;61.30
8539;DHT22;4307;53.868;11.680;2022-07-06T10:26:38;25.50;61.40
8539;DHT22;4307;53.868;11.680;2022-07-06T10:29:06;25.50;61.50
8539;DHT22;4307;53.868;11.680;2022-07-06T10:31:35;25.70;61.40
8539;DHT22;4307;53.868;11.680;2022-07-06T10:34:05;25.70;60.40
8539;DHT22;4307;53.868;11.680;2022-07-06T10:36:37;25.60;60.30
8539;DHT22;4307;53.868;11.680;2022-07-06T10:39:05;25.50;60.50
8539;DHT22;4307;53.868;11.680;2022-07-06T10:41:52;25.50;60.70
8539;DHT22;4307;53.868;11.680;2022-07-06T10:44:20;25.70;60.80
8539;DHT22;4307;53.868;11.680;2022-07-06T10:46:51;25.80;60.70
8539;DHT22;4307;53.868;11.680;2022-07-06T10:49:19;25.70;60.70
8539;DHT22;4307;53.868;11.680;2022-07-06T10:51:47;25.40;61.20
8539;DHT22;4307;53.868;11.680;2022-07-06T10:54:16;25.00;61.30
8539;DHT22;4307;53.868;11.680;2022-07-06T10:56:44;24.60;62.30
8539;DHT22;4307;53.868;11.680;2022-07-06T10:59:12;24.40;62.80
8539;DHT22;4307;53.868;11.680;2022-07-06T11:01:39;24.10;62.90
8539;DHT22;4307;53.868;11.680;2022-07-06T11:04:07;24.00;63.50
8539;DHT22;4307;53.868;11.680;2022-07-06T11:06:35;24.00;64.00
8539;DHT22;4307;53.868;11.680;2022-07-06T11:09:03;24.00;64.40
8539;DHT22;4307;53.868;11.680;2022-07-06T11:11:44;24.00;64.30
8539;DHT22;4307;53.868;11.680;2022-07-06T11:14:15;23.90;63.90
8539;DHT22;4307;53.868;11.680;2022-07-06T11:17:00;23.80;64.00
8539;DHT22;4307;53.868;11.680;2022-07-06T11:19:28;23.60;64.20
8539;DHT22;4307;53.868;11.680;2022-07-06T11:21:57;23.50;64.50
8539;DHT22;4307;53.868;11.680;2022-07-06T11:24:26;23.50;64.60
8539;DHT22;4307;53.868;11.680;2022-07-06T11:26:56;23.40;64.60
8539;DHT22;4307;53.868;11.680;2022-07-06T11:29:25;23.30;64.90
8539;DHT22;4307;53.868;11.680;2022-07-06T11:31:53;23.20;65.40
8539;DHT22;4307;53.868;11.680;2022-07-06T11:34:22;23.30;66.10
8539;DHT22;4307;53.868;11.680;2022-07-06T11:36:49;23.30;66.20
8539;DHT22;4307;53.868;11.680;2022-07-06T11:39:20;23.30;65.70
8539;DHT22;4307;53.868;11.680;2022-07-06T11:41:47;23.30;65.30
8539;DHT22;4307;53.868;11.680;2022-07-06T11:44:15;23.60;65.70
8539;DHT22;4307;53.868;11.680;2022-07-06T11:46:41;23.90;65.90
8539;DHT22;4307;53.868;11.680;2022-07-06T11:49:09;24.00;65.60
8539;DHT22;4307;53.868;11.680;2022-07-06T11:51:37;24.00;65.20
8539;DHT22;4307;53.868;11.680;2022-07-06T11:54:08;24.00;65.00
8539;DHT22;4307;53.868;11.680;2022-07-06T11:56:35;23.80;65.20
8539;DHT22;4307;53.868;11.680;2022-07-06T11:59:03;23.70;65.50
8539;DHT22;4307;53.868;11.680;2022-07-06T12:01:31;23.60;65.70
8539;DHT22;4307;53.868;11.680;2022-07-06T12:03:59;23.60;65.80
8539;DHT22;4307;53.868;11.680;2022-07-06T12:06:26;23.40;65.90
8539;DHT22;4307;53.868;11.680;2022-07-06T12:08:55;23.30;66.30
8539;DHT22;4307;53.868;11.680;2022-07-06T12:11:24;23.30;66.50
8539;DHT22;4307;53.868;11.680;2022-07-06T12:13:51;23.30;66.50
8539;DHT22;4307;53.868;11.680;2022-07-06T12:16:19;23.30;66.50
8539;DHT22;4307;53.868;11.680;2022-07-06T12:18:50;23.50;66.70
8539;DHT22;4307;53.868;11.680;2022-07-06T12:21:18;23.60;66.60
8539;DHT22;4307;53.868;11.680;2022-07-06T12:23:48;23.50;67.00
8539;DHT22;4307;53.868;11.680;2022-07-06T12:26:17;23.30;66.90
8539;DHT22;4307;53.868;11.680;2022-07-06T12:28:44;23.30;67.20
8539;DHT22;4307;53.868;11.680;2022-07-06T12:31:11;23.30;67.30
8539;DHT22;4307;53.868;11.680;2022-07-06T12:33:58;23.30;67.10
8539;DHT22;4307;53.868;11.680;2022-07-06T12:36:25;23.30;67.20
8539;DHT22;4307;53.868;11.680;2022-07-06T12:38:52;23.20;67.20
8539;DHT22;4307;53.868;11.680;2022-07-06T12:41:29;23.20;67.00
8539;DHT22;4307;53.868;11.680;2022-07-06T12:44:06;23.10;66.80
8539;DHT22;4307;53.868;11.680;2022-07-06T12:46:34;23.00;66.90
8539;DHT22;4307;53.868;11.680;2022-07-06T12:49:10;22.90;67.00
8539;DHT22;4307;53.868;11.680;2022-07-06T12:51:57;22.70;67.20
8539;DHT22;4307;53.868;11.680;2022-07-06T12:54:26;22.50;67.20
8539;DHT22;4307;53.868;11.680;2022-07-06T12:57:02;22.40;67.50
8539;DHT22;4307;53.868;11.680;2022-07-06T12:59:29;22.30;67.80
8539;DHT22;4307;53.868;11.680;2022-07-06T13:01:57;22.20;68.10
8539;DHT22;4307;53.868;11.680;2022-07-06T13:04:26;22.20;68.50
8539;DHT22;4307;53.868;11.680;2022-07-06T13:06:54;22.00;68.90
8539;DHT22;4307;53.868;11.680;2022-07-06T13:09:21;21.90;69.30
8539;DHT22;4307;53.868;11.680;2022-07-06T13:11:48;21.80;69.80
8539;DHT22;4307;53.868;11.680;2022-07-06T13:14:16;21.60;70.20
8539;DHT22;4307;53.868;11.680;2022-07-06T13:16:43;21.40;70.60
8539;DHT22;4307;53.868;11.680;2022-07-06T13:19:10;21.40;71.10
8539;DHT22;4307;53.868;11.680;2022-07-06T13:21:38;21.30;71.50
8539;DHT22;4307;53.868;11.680;2022-07-06T13:24:06;21.30;71.70
8539;DHT22;4307;53.868;11.680;2022-07-06T13:26:33;21.40;72.10
8539;DHT22;4307;53.868;11.680;2022-07-06T13:29:00;21.50;72.20
8539;DHT22;4307;53.868;11.680;2022-07-06T13:31:31;21.60;72.60
8539;DHT22;4307;53.868;11.680;2022-07-06T13:33:58;21.60;72.10
8539;DHT22;4307;53.868;11.680;2022-07-06T13:36:25;21.60;71.50
8539;DHT22;4307;53.868;11.680;2022-07-06T13:38:53;21.60;71.30
8539;DHT22;4307;53.868;11.680;2022-07-06T13:41:20;21.50;71.50
8539;DHT22;4307;53.868;11.680;2022-07-06T13:43:47;21.40;71.70
8539;DHT22;4307;53.868;11.680;2022-07-06T13:46:13;21.40;71.70
8539;DHT22;4307;53.868;11.680;2022-07-06T13:48:42;21.40;71.90
8539;DHT22;4307;53.868;11.680;2022-07-06T13:51:09;21.50;72.10
8539;DHT22;4307;53.868;11.680;2022-07-06T13:53:36;21.50;72.20
8539;DHT22;4307;53.868;11.680;2022-07-06T13:56:05;21.50;71.60
8539;DHT22;4307;53.868;11.680;2022-07-06T13:58:33;21.30;71.90
8539;DHT22;4307;53.868;11.680;2022-07-06T14:01:00;21.20;72.20
8539;DHT22;4307;53.868;11.680;2022-07-06T14:03:26;21.30;72.20
8539;DHT22;4307;53.868;11.680;2022-07-06T14:05:55;21.40;72.10
8539;DHT22;4307;53.868;11.680;2022-07-06T14:08:23;21.60;72.20
8539;DHT22;4307;53.868;11.680;2022-07-06T14:10:49;21.80;71.90
8539;DHT22;4307;53.868;11.680;2022-07-06T14:13:17;22.00;71.60
8539;DHT22;4307;53.868;11.680;2022-07-06T14:15:44;22.10;71.40
8539;DHT22;4307;53.868;11.680;2022-07-06T14:18:11;22.20;71.20
8539;DHT22;4307;53.868;11.680;2022-07-06T14:20:38;22.20;70.90
8539;DHT22;4307;53.868;11.680;2022-07-06T14:23:05;22.20;70.80
8539;DHT22;4307;53.868;11.680;2022-07-06T14:25:31;22.30;70.80
8539;DHT22;4307;53.868;11.680;2022-07-06T14:27:58;22.30;70.60
8539;DHT22;4307;53.868;11.680;2022-07-06T14:30:26;22.40;70.50
8539;DHT22;4307;53.868;11.680;2022-07-06T14:32:53;22.40;70.20
8539;DHT22;4307;53.868;11.680;2022-07-06T14:35:20;22.40;70.20
8539;DHT22;4307;53.868;11.680;2022-07-06T14:37:47;22.40;70.60
8539;DHT22;4307;53.868;11.680;2022-07-06T14:40:13;22.50;70.50
8539;DHT22;4307;53.868;11.680;2022-07-06T14:42:40;22.50;70.30
8539;DHT22;4307;53.868;11.680;2022-07-06T14:45:07;22.50;70.50
8539;DHT22;4307;53.868;11.680;2022-07-06T14:47:35;22.40;70.80
8539;DHT22;4307;53.868;11.680;2022-07-06T14:50:03;22.20;71.20
8539;DHT22;4307;53.868;11.680;2022-07-06T14:52:29;21.90;71.90
8539;DHT22;4307;53.868;11.680;2022-07-06T14:54:56;21.70;72.70
8539;DHT22;4307;53.868;11.680;2022-07-06T14:57:25;21.50;73.30
8539;DHT22;4307;53.868;11.680;2022-07-06T14:59:51;21.30;72.80
8539;DHT22;4307;53.868;11.680;2022-07-06T15:02:18;21.30;73.20
8539;DHT22;4307;53.868;11.680;2022-07-06T15:04:46;21.30;73.40
8539;DHT22;4307;53.868;11.680;2022-07-06T15:07:13;21.40;73.70
8539;DHT22;4307;53.868;11.680;2022-07-06T15:09:39;21.40;73.60
8539;DHT22;4307;53.868;11.680;2022-07-06T15:12:07;21.50;73.60
8539;DHT22;4307;53.868;11.680;2022-07-06T15:14:34;21.60;73.30
8539;DHT22;4307;53.868;11.680;2022-07-06T15:17:01;21.60;73.10
8539;DHT22;4307;53.868;11.680;2022-07-06T15:19:28;21.50;73.90
8539;DHT22;4307;53.868;11.680;2022-07-06T15:21:56;21.40;73.40
8539;DHT22;4307;53.868;11.680;2022-07-06T15:24:23;21.30;73.60
8539;DHT22;4307;53.868;11.680;2022-07-06T15:26:50;21.30;73.80
8539;DHT22;4307;53.868;11.680;2022-07-06T15:29:17;21.30;74.00
8539;DHT22;4307;53.868;11.680;2022-07-06T15:31:43;21.20;74.20
8539;DHT22;4307;53.868;11.680;2022-07-06T15:34:11;21.20;74.70
8539;DHT22;4307;53.868;11.680;2022-07-06T15:36:37;21.10;75.00
8539;DHT22;4307;53.868;11.680;2022-07-06T15:39:05;21.10;75.20
8539;DHT22;4307;53.868;11.680;2022-07-06T15:41:32;21.00;75.50
8539;DHT22;4307;53.868;11.680;2022-07-06T15:43:59;20.90;75.60
8539;DHT22;4307;53.868;11.680;2022-07-06T15:46:26;20.90;75.80
8539;DHT22;4307;53.868;11.680;2022-07-06T15:48:52;20.80;75.80